sensor_id;sensor_type;location;lat;lon;timestamp;temperature;humidity
7218;DHT22;3650;53.580;10.094;2023-07-09T00:01:15;22.40;37.50
7218;DHT22;3650;53.580;10.094;2023-07-09T00:03:42;22.40;37.50
7218;DHT22;3650;53.580;10.094;2023-07-09T00:06:10;22.40;37.50
7218;DHT22;3650;53.580;10.094;2023-07-09T00:08:42;22.40;37.20
7218;DHT22;3650;53.580;10.094;2023-07-09T00:11:10;22.40;37.40
7218;DHT22;3650;53.580;10.094;2023-07-09T00:13:36;22.40;37.20
7218;DHT22;3650;53.580;10.094;2023-07-09T00:16:10;22.40;37.10
7218;DHT22;3650;53.580;10.094;2023-07-09T00:18:40;22.40;37.10
7218;DHT22;3650;53.580;10.094;2023-07-09T00:21:07;22.40;37.10
7218;DHT22;3650;53.580;10.094;2023-07-09T00:23:34;22.40;37.30
7218;DHT22;3650;53.580;10.094;2023-07-09T00:26:00;22.30;37.30
7218;DHT22;3650;53.580;10.094;2023-07-09T00:28:28;22.30;37.30
7218;DHT22;3650;53.580;10.094;2023-07-09T00:30:56;22.20;37.50
7218;DHT22;3650;53.580;10.094;2023-07-09T00:33:23;22.20;37.30
7218;DHT22;3650;53.580;10.094;2023-07-09T00:35:59;22.20;37.50
7218;DHT22;3650;53.580;10.094;2023-07-09T00:38:26;22.10;37.10
7218;DHT22;3650;53.580;10.094;2023-07-09T00:41:02;22.10;37.10
7218;DHT22;3650;53.580;10.094;2023-07-09T00:43:30;22.10;36.90
7218;DHT22;3650;53.580;10.094;2023-07-09T00:46:16;22.10;36.90
7218;DHT22;3650;53.580;10.094;2023-07-09T00:48:45;22.10;36.50
7218;DHT22;3650;53.580;10.094;2023-07-09T00:51:16;22.10;36.40
7218;DHT22;3650;53.580;10.094;2023-07-09T00:53:46;22.10;36.50
7218;DHT22;3650;53.580;10.094;2023-07-09T00:56:26;22.10;37.20
7218;DHT22;3650;53.580;10.094;2023-07-09T00:58:55;22.10;37.00
7218;DHT22;3650;53.580;10.094;2023-07-09T01:01:23;22.10;36.80
7218;DHT22;3650;53.580;10.094;2023-07-09T01:03:52;22.10;37.30
7218;DHT22;3650;53.580;10.094;2023-07-09T01:06:26;22.00;37.00
7218;DHT22;3650;53.580;10.094;2023-07-09T01:08:56;22.00;36.80
7218;DHT22;3650;53.580;10.094;2023-07-09T01:11:23;22.00;36.50
7218;DHT22;3650;53.580;10.094;2023-07-09T01:13:51;21.90;36.40
7218;DHT22;3650;53.580;10.094;2023-07-09T01:16:22;22.00;36.50
7218;DHT22;3650;53.580;10.094;2023-07-09T01:18:51;21.90;36.20
7218;DHT22;3650;53.580;10.094;2023-07-09T01:21:20;21.90;36.20
7218;DHT22;3650;53.580;10.094;2023-07-09T01:23:48;21.90;36.20
7218;DHT22;3650;53.580;10.094;2023-07-09T01:26:21;21.90;36.10
7218;DHT22;3650;53.580;10.094;2023-07-09T01:28:50;21.90;36.30
7218;DHT22;3650;53.580;10.094;2023-07-09T01:31:17;21.80;36.10
7218;DHT22;3650;53.580;10.094;2023-07-09T01:33:44;21.80;36.10
7218;DHT22;3650;53.580;10.094;2023-07-09T01:36:14;21.80;36.00
7218;DHT22;3650;53.580;10.094;2023-07-09T01:38:43;21.70;35.90
7218;DHT22;3650;53.580;10.094;2023-07-09T01:41:10;21.70;35.80
7218;DHT22;3650;53.580;10.094;2023-07-09T01:43:39;21.70;35.70
7218;DHT22;3650;53.580;10.094;2023-07-09T01:46:06;21.70;35.60
7218;DHT22;3650;53.580;10.094;2023-07-09T01:48:34;21.70;35.30
7218;DHT22;3650;53.580;10.094;2023-07-09T01:51:07;21.70;35.00
7218;DHT22;3650;53.580;10.094;2023-07-09T01:53:36;21.70;34.70
7218;DHT22;3650;53.580;10.094;2023-07-09T01:56:06;21.70;34.70
7218;DHT22;3650;53.580;10.094;2023-07-09T01:58:34;21.70;34.70
7218;DHT22;3650;53.580;10.094;2023-07-09T02:01:02;21.70;33.80
7218;DHT22;3650;53.580;10.094;2023-07-09T02:03:28;21.60;34.60
7218;DHT22;3650;53.580;10.094;2023-07-09T02:05:56;21.60;35.00
7218;DHT22;3650;53.580;10.094;2023-07-09T02:08:25;21.60;35.70
7218;DHT22;3650;53.580;10.094;2023-07-09T02:10:53;21.60;35.20
7218;DHT22;3650;53.580;10.094;2023-07-09T02:13:21;21.60;35.40
7218;DHT22;3650;53.580;10.094;2023-07-09T02:15:48;21.50;36.30
7218;DHT22;3650;53.580;10.094;2023-07-09T02:18:15;21.50;38.70
7218;DHT22;3650;53.580;10.094;2023-07-09T02:20:43;21.50;37.90
7218;DHT22;3650;53.580;10.094;2023-07-09T02:23:11;21.40;37.90
7218;DHT22;3650;53.580;10.094;2023-07-09T02:25:39;21.30;36.40
7218;DHT22;3650;53.580;10.094;2023-07-09T02:28:07;21.30;36.80
7218;DHT22;3650;53.580;10.094;2023-07-09T02:30:35;21.20;36.90
7218;DHT22;3650;53.580;10.094;2023-07-09T02:33:02;21.10;36.50
7218;DHT22;3650;53.580;10.094;2023-07-09T02:35:29;21.10;37.10
7218;DHT22;3650;53.580;10.094;2023-07-09T02:37:57;21.00;37.10
7218;DHT22;3650;53.580;10.094;2023-07-09T02:40:24;21.00;37.20
7218;DHT22;3650;53.580;10.094;2023-07-09T02:42:51;21.00;37.10
7218;DHT22;3650;53.580;10.094;2023-07-09T02:45:18;21.00;37.90
7218;DHT22;3650;53.580;10.094;2023-07-09T02:47:47;21.00;41.40
7218;DHT22;3650;53.580;10.094;2023-07-09T02:50:14;20.90;41.10
7218;DHT22;3650;53.580;10.094;2023-07-09T02:52:41;20.80;39.50
7218;DHT22;3650;53.580;10.094;2023-07-09T02:55:09;20.80;39.00
7218;DHT22;3650;53.580;10.094;2023-07-09T02:57:36;20.80;41.70
7218;DHT22;3650;53.580;10.094;2023-07-09T03:00:03;20.70;43.60
7218;DHT22;3650;53.580;10.094;2023-07-09T03:02:31;20.70;41.40
7218;DHT22;3650;53.580;10.094;2023-07-09T03:05:00;20.60;42.30
7218;DHT22;3650;53.580;10.094;2023-07-09T03:07:26;20.60;43.60
7218;DHT22;3650;53.580;10.094;2023-07-09T03:09:53;20.50;43.20
7218;DHT22;3650;53.580;10.094;2023-07-09T03:12:20;20.50;47.70
7218;DHT22;3650;53.580;10.094;2023-07-09T03:14:48;20.50;46.00
7218;DHT22;3650;53.580;10.094;2023-07-09T03:17:15;20.40;45.90
7218;DHT22;3650;53.580;10.094;2023-07-09T03:19:42;20.40;47.10
7218;DHT22;3650;53.580;10.094;2023-07-09T03:22:11;20.40;48.20
7218;DHT22;3650;53.580;10.094;2023-07-09T03:24:37;20.30;44.80
7218;DHT22;3650;53.580;10.094;2023-07-09T03:27:05;20.20;43.50
7218;DHT22;3650;53.580;10.094;2023-07-09T03:29:32;20.30;42.20
7218;DHT22;3650;53.580;10.094;2023-07-09T03:31:59;20.20;41.80
7218;DHT22;3650;53.580;10.094;2023-07-09T03:34:26;20.10;41.00
7218;DHT22;3650;53.580;10.094;2023-07-09T03:36:53;20.10;40.70
7218;DHT22;3650;53.580;10.094;2023-07-09T03:39:21;20.10;40.50
7218;DHT22;3650;53.580;10.094;2023-07-09T03:41:48;20.10;40.40
7218;DHT22;3650;53.580;10.094;2023-07-09T03:44:15;20.10;45.60
7218;DHT22;3650;53.580;10.094;2023-07-09T03:46:42;20.00;45.50
7218;DHT22;3650;53.580;10.094;2023-07-09T03:49:09;20.00;45.50
7218;DHT22;3650;53.580;10.094;2023-07-09T03:51:37;20.00;45.90
7218;DHT22;3650;53.580;10.094;2023-07-09T03:54:04;20.00;45.50
7218;DHT22;3650;53.580;10.094;2023-07-09T03:56:32;20.00;46.00
7218;DHT22;3650;53.580;10.094;2023-07-09T03:58:59;20.00;48.30
7218;DHT22;3650;53.580;10.094;2023-07-09T04:01:26;20.00;49.80
7218;DHT22;3650;53.580;10.094;2023-07-09T04:03:53;19.90;48.10
7218;DHT22;3650;53.580;10.094;2023-07-09T04:06:20;19.90;48.70
7218;DHT22;3650;53.580;10.094;2023-07-09T04:08:47;19.90;46.50
7218;DHT22;3650;53.580;10.094;2023-07-09T04:11:13;19.90;45.50
7218;DHT22;3650;53.580;10.094;2023-07-09T04:13:41;19.90;44.90
7218;DHT22;3650;53.580;10.094;2023-07-09T04:16:09;19.80;45.00
7218;DHT22;3650;53.580;10.094;2023-07-09T04:18:37;19.90;44.40
7218;DHT22;3650;53.580;10.094;2023-07-09T04:21:04;19.80;45.00
7218;DHT22;3650;53.580;10.094;2023-07-09T04:23:31;19.80;44.70
7218;DHT22;3650;53.580;10.094;2023-07-09T04:25:57;19.90;47.20
7218;DHT22;3650;53.580;10.094;2023-07-09T04:28:29;19.90;50.30
7218;DHT22;3650;53.580;10.094;2023-07-09T04:30:58;19.80;49.60
7218;DHT22;3650;53.580;10.094;2023-07-09T04:33:25;19.80;49.60
7218;DHT22;3650;53.580;10.094;2023-07-09T04:35:52;19.80;48.80
7218;DHT22;3650;53.580;10.094;2023-07-09T04:38:19;19.80;48.00
7218;DHT22;3650;53.580;10.094;2023-07-09T04:40:46;19.70;49.50
7218;DHT22;3650;53.580;10.094;2023-07-09T04:43:13;19.70;52.60
7218;DHT22;3650;53.580;10.094;2023-07-09T04:45:41;19.70;54.60
7218;DHT22;3650;53.580;10.094;2023-07-09T04:48:09;19.70;54.70
7218;DHT22;3650;53.580;10.094;2023-07-09T04:50:37;19.70;55.20
7218;DHT22;3650;53.580;10.094;2023-07-09T04:53:06;19.70;55.20
7218;DHT22;3650;53.580;10.094;2023-07-09T04:55:33;19.70;56.50
7218;DHT22;3650;53.580;10.094;2023-07-09T04:58:00;19.70;55.70
7218;DHT22;3650;53.580;10.094;2023-07-09T05:00:27;19.60;54.10
7218;DHT22;3650;53.580;10.094;2023-07-09T05:02:55;19.60;52.00
7218;DHT22;3650;53.580;10.094;2023-07-09T05:05:23;19.60;48.40
7218;DHT22;3650;53.580;10.094;2023-07-09T05:07:50;19.70;47.60
7218;DHT22;3650;53.580;10.094;2023-07-09T05:10:17;19.70;47.10
7218;DHT22;3650;53.580;10.094;2023-07-09T05:12:49;19.70;46.80
7218;DHT22;3650;53.580;10.094;2023-07-09T05:15:17;19.80;46.20
7218;DHT22;3650;53.580;10.094;2023-07-09T05:17:45;19.80;45.40
7218;DHT22;3650;53.580;10.094;2023-07-09T05:20:12;19.90;45.50
7218;DHT22;3650;53.580;10.094;2023-07-09T05:22:41;19.90;45.40
7218;DHT22;3650;53.580;10.094;2023-07-09T05:25:08;20.00;45.70
7218;DHT22;3650;53.580;10.094;2023-07-09T05:27:35;20.10;47.90
7218;DHT22;3650;53.580;10.094;2023-07-09T05:30:02;20.10;47.20
7218;DHT22;3650;53.580;10.094;2023-07-09T05:32:30;20.20;48.40
7218;DHT22;3650;53.580;10.094;2023-07-09T05:34:57;20.20;48.20
7218;DHT22;3650;53.580;10.094;2023-07-09T05:37:24;20.20;47.70
7218;DHT22;3650;53.580;10.094;2023-07-09T05:39:52;20.30;46.50
7218;DHT22;3650;53.580;10.094;2023-07-09T05:42:19;20.30;45.80
7218;DHT22;3650;53.580;10.094;2023-07-09T05:44:46;20.30;44.30
7218;DHT22;3650;53.580;10.094;2023-07-09T05:47:13;20.40;44.30
7218;DHT22;3650;53.580;10.094;2023-07-09T05:49:40;20.40;44.20
7218;DHT22;3650;53.580;10.094;2023-07-09T05:52:07;20.50;43.20
7218;DHT22;3650;53.580;10.094;2023-07-09T05:54:34;20.50;42.50
7218;DHT22;3650;53.580;10.094;2023-07-09T05:57:03;20.60;42.50
7218;DHT22;3650;53.580;10.094;2023-07-09T05:59:30;20.60;42.20
7218;DHT22;3650;53.580;10.094;2023-07-09T06:01:57;20.70;41.60
7218;DHT22;3650;53.580;10.094;2023-07-09T06:04:26;20.70;41.40
7218;DHT22;3650;53.580;10.094;2023-07-09T06:06:53;20.70;41.40
7218;DHT22;3650;53.580;10.094;2023-07-09T06:09:20;20.80;40.80
7218;DHT22;3650;53.580;10.094;2023-07-09T06:11:47;20.90;40.40
7218;DHT22;3650;53.580;10.094;2023-07-09T06:14:16;20.80;40.10
7218;DHT22;3650;53.580;10.094;2023-07-09T06:16:44;21.10;39.80
7218;DHT22;3650;53.580;10.094;2023-07-09T06:19:13;21.10;39.60
7218;DHT22;3650;53.580;10.094;2023-07-09T06:21:40;21.10;39.40
7218;DHT22;3650;53.580;10.094;2023-07-09T06:24:08;21.20;39.30
7218;DHT22;3650;53.580;10.094;2023-07-09T06:26:35;21.20;39.30
7218;DHT22;3650;53.580;10.094;2023-07-09T06:29:02;21.30;39.40
7218;DHT22;3650;53.580;10.094;2023-07-09T06:31:31;21.40;39.40
7218;DHT22;3650;53.580;10.094;2023-07-09T06:33:58;21.40;39.30
7218;DHT22;3650;53.580;10.094;2023-07-09T06:36:26;21.50;39.00
7218;DHT22;3650;53.580;10.094;2023-07-09T06:38:53;21.50;38.90
7218;DHT22;3650;53.580;10.094;2023-07-09T06:41:20;21.60;38.90
7218;DHT22;3650;53.580;10.094;2023-07-09T06:43:47;21.60;38.80
7218;DHT22;3650;53.580;10.094;2023-07-09T06:46:15;21.70;38.90
7218;DHT22;3650;53.580;10.094;2023-07-09T06:48:43;21.70;38.60
7218;DHT22;3650;53.580;10.094;2023-07-09T06:51:10;21.70;38.70
7218;DHT22;3650;53.580;10.094;2023-07-09T06:53:37;21.80;38.60
7218;DHT22;3650;53.580;10.094;2023-07-09T06:56:05;21.90;39.70
7218;DHT22;3650;53.580;10.094;2023-07-09T06:58:33;21.90;39.90
7218;DHT22;3650;53.580;10.094;2023-07-09T07:01:01;22.00;39.70
7218;DHT22;3650;53.580;10.094;2023-07-09T07:03:29;22.00;41.30
7218;DHT22;3650;53.580;10.094;2023-07-09T07:05:59;22.00;41.60
7218;DHT22;3650;53.580;10.094;2023-07-09T07:08:26;22.10;41.50
7218;DHT22;3650;53.580;10.094;2023-07-09T07:10:56;22.10;43.10
7218;DHT22;3650;53.580;10.094;2023-07-09T07:13:27;22.20;43.50
7218;DHT22;3650;53.580;10.094;2023-07-09T07:15:54;22.20;43.90
7218;DHT22;3650;53.580;10.094;2023-07-09T07:18:21;22.30;43.70
7218;DHT22;3650;53.580;10.094;2023-07-09T07:20:49;22.30;42.50
7218;DHT22;3650;53.580;10.094;2023-07-09T07:23:17;22.40;41.30
7218;DHT22;3650;53.580;10.094;2023-07-09T07:25:45;22.40;40.10
7218;DHT22;3650;53.580;10.094;2023-07-09T07:28:12;22.40;39.40
7218;DHT22;3650;53.580;10.094;2023-07-09T07:30:39;22.50;39.50
7218;DHT22;3650;53.580;10.094;2023-07-09T07:33:06;22.50;39.60
7218;DHT22;3650;53.580;10.094;2023-07-09T07:35:34;22.60;39.60
7218;DHT22;3650;53.580;10.094;2023-07-09T07:38:02;22.60;39.20
7218;DHT22;3650;53.580;10.094;2023-07-09T07:40:30;22.60;38.40
7218;DHT22;3650;53.580;10.094;2023-07-09T07:42:57;22.60;38.10
7218;DHT22;3650;53.580;10.094;2023-07-09T07:45:24;22.70;38.20
7218;DHT22;3650;53.580;10.094;2023-07-09T07:47:51;22.80;38.70
7218;DHT22;3650;53.580;10.094;2023-07-09T07:50:18;22.80;38.40
7218;DHT22;3650;53.580;10.094;2023-07-09T07:52:46;22.80;38.10
7218;DHT22;3650;53.580;10.094;2023-07-09T07:55:13;22.90;37.80
7218;DHT22;3650;53.580;10.094;2023-07-09T07:57:41;22.90;37.30
7218;DHT22;3650;53.580;10.094;2023-07-09T08:00:09;23.00;38.00
7218;DHT22;3650;53.580;10.094;2023-07-09T08:02:36;23.00;38.10
7218;DHT22;3650;53.580;10.094;2023-07-09T08:05:04;23.00;39.30
7218;DHT22;3650;53.580;10.094;2023-07-09T08:07:32;23.10;40.00
7218;DHT22;3650;53.580;10.094;2023-07-09T08:09:58;23.10;39.40
7218;DHT22;3650;53.580;10.094;2023-07-09T08:12:25;23.20;39.30
7218;DHT22;3650;53.580;10.094;2023-07-09T08:14:53;23.20;38.90
7218;DHT22;3650;53.580;10.094;2023-07-09T08:17:20;23.20;38.20
7218;DHT22;3650;53.580;10.094;2023-07-09T08:19:49;23.30;37.80
7218;DHT22;3650;53.580;10.094;2023-07-09T08:22:16;23.30;37.50
7218;DHT22;3650;53.580;10.094;2023-07-09T08:24:46;23.40;37.50
7218;DHT22;3650;53.580;10.094;2023-07-09T08:27:13;23.40;37.30
7218;DHT22;3650;53.580;10.094;2023-07-09T08:29:40;23.40;37.10
7218;DHT22;3650;53.580;10.094;2023-07-09T08:32:09;23.50;37.10
7218;DHT22;3650;53.580;10.094;2023-07-09T08:34:38;23.50;36.80
7218;DHT22;3650;53.580;10.094;2023-07-09T08:37:06;23.50;36.60
7218;DHT22;3650;53.580;10.094;2023-07-09T08:39:34;23.60;36.20
7218;DHT22;3650;53.580;10.094;2023-07-09T08:42:05;23.60;37.30
7218;DHT22;3650;53.580;10.094;2023-07-09T08:44:52;23.60;36.90
7218;DHT22;3650;53.580;10.094;2023-07-09T08:47:28;23.70;36.50
7218;DHT22;3650;53.580;10.094;2023-07-09T08:50:00;23.70;36.30
7218;DHT22;3650;53.580;10.094;2023-07-09T08:52:31;23.80;36.70
7218;DHT22;3650;53.580;10.094;2023-07-09T08:55:04;23.80;36.30
7218;DHT22;3650;53.580;10.094;2023-07-09T08:57:37;23.80;36.30
7218;DHT22;3650;53.580;10.094;2023-07-09T09:00:13;23.80;36.40
7218;DHT22;3650;53.580;10.094;2023-07-09T09:02:49;23.90;36.40
7218;DHT22;3650;53.580;10.094;2023-07-09T09:05:19;24.00;36.50
7218;DHT22;3650;53.580;10.094;2023-07-09T09:07:51;24.00;37.30
7218;DHT22;3650;53.580;10.094;2023-07-09T09:10:25;24.00;36.20
7218;DHT22;3650;53.580;10.094;2023-07-09T09:13:04;24.10;36.60
7218;DHT22;3650;53.580;10.094;2023-07-09T09:15:32;24.10;36.60
7218;DHT22;3650;53.580;10.094;2023-07-09T09:18:19;24.10;36.60
7218;DHT22;3650;53.580;10.094;2023-07-09T09:20:55;24.20;36.60
7218;DHT22;3650;53.580;10.094;2023-07-09T09:23:28;24.20;36.40
7218;DHT22;3650;53.580;10.094;2023-07-09T09:25:58;24.30;36.20
7218;DHT22;3650;53.580;10.094;2023-07-09T09:28:27;24.30;35.90
7218;DHT22;3650;53.580;10.094;2023-07-09T09:30:55;24.40;36.30
7218;DHT22;3650;53.580;10.094;2023-07-09T09:33:23;24.40;36.60
7218;DHT22;3650;53.580;10.094;2023-07-09T09:36:01;24.50;36.70
7218;DHT22;3650;53.580;10.094;2023-07-09T09:38:30;24.50;36.90
7218;DHT22;3650;53.580;10.094;2023-07-09T09:41:00;24.50;36.80
7218;DHT22;3650;53.580;10.094;2023-07-09T09:43:32;24.60;36.20
7218;DHT22;3650;53.580;10.094;2023-07-09T09:46:00;24.60;35.60
7218;DHT22;3650;53.580;10.094;2023-07-09T09:48:33;24.70;35.20
7218;DHT22;3650;53.580;10.094;2023-07-09T09:51:04;24.70;35.70
7218;DHT22;3650;53.580;10.094;2023-07-09T09:53:38;24.80;36.20
7218;DHT22;3650;53.580;10.094;2023-07-09T09:56:13;24.80;36.80
7218;DHT22;3650;53.580;10.094;2023-07-09T09:58:41;24.90;36.20
7218;DHT22;3650;53.580;10.094;2023-07-09T10:01:15;24.90;35.50
7218;DHT22;3650;53.580;10.094;2023-07-09T10:03:47;24.90;35.20
7218;DHT22;3650;53.580;10.094;2023-07-09T10:06:18;25.00;35.30
7218;DHT22;3650;53.580;10.094;2023-07-09T10:08:52;25.00;35.40
7218;DHT22;3650;53.580;10.094;2023-07-09T10:11:28;25.10;35.10
7218;DHT22;3650;53.580;10.094;2023-07-09T10:14:03;25.10;35.00
7218;DHT22;3650;53.580;10.094;2023-07-09T10:16:36;25.20;34.90
7218;DHT22;3650;53.580;10.094;2023-07-09T10:19:16;25.20;34.70
7218;DHT22;3650;53.580;10.094;2023-07-09T10:21:50;25.20;35.00
7218;DHT22;3650;53.580;10.094;2023-07-09T10:24:33;25.30;35.60
7218;DHT22;3650;53.580;10.094;2023-07-09T10:27:09;25.40;35.50
7218;DHT22;3650;53.580;10.094;2023-07-09T10:29:46;25.40;35.10
7218;DHT22;3650;53.580;10.094;2023-07-09T10:32:28;25.40;34.40
7218;DHT22;3650;53.580;10.094;2023-07-09T10:35:07;25.50;34.00
7218;DHT22;3650;53.580;10.094;2023-07-09T10:37:53;25.50;34.30
7218;DHT22;3650;53.580;10.094;2023-07-09T10:40:28;25.60;34.30
7218;DHT22;3650;53.580;10.094;2023-07-09T10:42:59;25.60;33.40
7218;DHT22;3650;53.580;10.094;2023-07-09T10:45:29;25.70;32.90
7218;DHT22;3650;53.580;10.094;2023-07-09T10:48:00;25.70;32.50
7218;DHT22;3650;53.580;10.094;2023-07-09T10:50:33;25.80;32.70
7218;DHT22;3650;53.580;10.094;2023-07-09T10:53:05;25.80;32.50
7218;DHT22;3650;53.580;10.094;2023-07-09T10:55:41;25.90;32.70
7218;DHT22;3650;53.580;10.094;2023-07-09T10:58:34;25.90;32.70
7218;DHT22;3650;53.580;10.094;2023-07-09T11:01:02;26.00;32.80
7218;DHT22;3650;53.580;10.094;2023-07-09T11:03:42;26.00;33.10
7218;DHT22;3650;53.580;10.094;2023-07-09T11:06:19;26.10;32.90
7218;DHT22;3650;53.580;10.094;2023-07-09T11:08:51;26.20;32.50
7218;DHT22;3650;53.580;10.094;2023-07-09T11:11:29;26.20;34.00
7218;DHT22;3650;53.580;10.094;2023-07-09T11:14:04;26.20;33.30
7218;DHT22;3650;53.580;10.094;2023-07-09T11:16:38;26.20;32.20
7218;DHT22;3650;53.580;10.094;2023-07-09T11:19:11;26.30;34.20
7218;DHT22;3650;53.580;10.094;2023-07-09T11:21:45;26.40;34.60
7218;DHT22;3650;53.580;10.094;2023-07-09T11:24:35;26.50;33.50
7218;DHT22;3650;53.580;10.094;2023-07-09T11:27:16;26.50;34.30
7218;DHT22;3650;53.580;10.094;2023-07-09T11:29:46;26.60;33.40
7218;DHT22;3650;53.580;10.094;2023-07-09T11:32:18;26.60;32.50
7218;DHT22;3650;53.580;10.094;2023-07-09T11:34:46;26.70;32.90
7218;DHT22;3650;53.580;10.094;2023-07-09T11:37:16;26.70;31.60
7218;DHT22;3650;53.580;10.094;2023-07-09T11:39:45;26.70;30.80
7218;DHT22;3650;53.580;10.094;2023-07-09T11:42:24;26.80;30.80
7218;DHT22;3650;53.580;10.094;2023-07-09T11:44:56;26.80;30.90
7218;DHT22;3650;53.580;10.094;2023-07-09T11:47:28;26.90;33.40
7218;DHT22;3650;53.580;10.094;2023-07-09T11:49:58;26.90;33.90
7218;DHT22;3650;53.580;10.094;2023-07-09T11:52:30;27.00;32.30
7218;DHT22;3650;53.580;10.094;2023-07-09T11:55:02;27.00;30.00
7218;DHT22;3650;53.580;10.094;2023-07-09T11:57:29;27.10;29.20
7218;DHT22;3650;53.580;10.094;2023-07-09T11:59:59;27.10;29.80
7218;DHT22;3650;53.580;10.094;2023-07-09T12:02:32;27.10;32.70
7218;DHT22;3650;53.580;10.094;2023-07-09T12:04:59;27.20;30.70
7218;DHT22;3650;53.580;10.094;2023-07-09T12:07:31;27.30;28.10
7218;DHT22;3650;53.580;10.094;2023-07-09T12:09:58;27.30;29.00
7218;DHT22;3650;53.580;10.094;2023-07-09T12:12:29;27.30;30.40
7218;DHT22;3650;53.580;10.094;2023-07-09T12:14:58;27.40;32.20
7218;DHT22;3650;53.580;10.094;2023-07-09T12:17:26;27.40;32.70
7218;DHT22;3650;53.580;10.094;2023-07-09T12:19:55;27.50;29.60
7218;DHT22;3650;53.580;10.094;2023-07-09T12:22:22;27.50;29.00
7218;DHT22;3650;53.580;10.094;2023-07-09T12:24:51;27.50;27.00
7218;DHT22;3650;53.580;10.094;2023-07-09T12:27:22;27.50;26.20
7218;DHT22;3650;53.580;10.094;2023-07-09T12:29:53;27.50;25.90
7218;DHT22;3650;53.580;10.094;2023-07-09T12:32:20;27.60;27.10
7218;DHT22;3650;53.580;10.094;2023-07-09T12:34:50;27.60;28.80
7218;DHT22;3650;53.580;10.094;2023-07-09T12:37:19;27.70;27.20
7218;DHT22;3650;53.580;10.094;2023-07-09T12:39:52;27.70;25.70
7218;DHT22;3650;53.580;10.094;2023-07-09T12:42:23;27.80;26.20
7218;DHT22;3650;53.580;10.094;2023-07-09T12:44:51;27.70;25.70
7218;DHT22;3650;53.580;10.094;2023-07-09T12:47:20;27.70;25.20
7218;DHT22;3650;53.580;10.094;2023-07-09T12:49:50;27.70;26.20
7218;DHT22;3650;53.580;10.094;2023-07-09T12:52:19;27.80;26.50
7218;DHT22;3650;53.580;10.094;2023-07-09T12:54:55;27.80;26.80
7218;DHT22;3650;53.580;10.094;2023-07-09T12:57:23;27.80;27.20
7218;DHT22;3650;53.580;10.094;2023-07-09T12:59:51;27.80;26.40
7218;DHT22;3650;53.580;10.094;2023-07-09T13:02:19;27.90;25.30
7218;DHT22;3650;53.580;10.094;2023-07-09T13:04:48;27.90;25.20
7218;DHT22;3650;53.580;10.094;2023-07-09T13:07:26;27.90;23.40
7218;DHT22;3650;53.580;10.094;2023-07-09T13:09:55;27.90;22.80
7218;DHT22;3650;53.580;10.094;2023-07-09T13:12:29;27.90;22.30
7218;DHT22;3650;53.580;10.094;2023-07-09T13:14:56;28.00;23.10
7218;DHT22;3650;53.580;10.094;2023-07-09T13:17:28;28.00;23.40
7218;DHT22;3650;53.580;10.094;2023-07-09T13:19:55;28.00;22.60
7218;DHT22;3650;53.580;10.094;2023-07-09T13:22:23;28.00;23.20
7218;DHT22;3650;53.580;10.094;2023-07-09T13:24:50;28.10;21.00
7218;DHT22;3650;53.580;10.094;2023-07-09T13:27:19;28.10;20.50
7218;DHT22;3650;53.580;10.094;2023-07-09T13:29:45;28.10;22.20
7218;DHT22;3650;53.580;10.094;2023-07-09T13:32:15;28.20;23.00
7218;DHT22;3650;53.580;10.094;2023-07-09T13:34:43;28.20;22.50
7218;DHT22;3650;53.580;10.094;2023-07-09T13:37:13;28.20;22.10
7218;DHT22;3650;53.580;10.094;2023-07-09T13:39:41;28.30;22.90
7218;DHT22;3650;53.580;10.094;2023-07-09T13:42:12;28.30;24.60
7218;DHT22;3650;53.580;10.094;2023-07-09T13:44:42;28.30;27.10
7218;DHT22;3650;53.580;10.094;2023-07-09T13:47:13;28.40;24.60
7218;DHT22;3650;53.580;10.094;2023-07-09T13:49:42;28.40;23.20
7218;DHT22;3650;53.580;10.094;2023-07-09T13:52:14;28.40;21.40
7218;DHT22;3650;53.580;10.094;2023-07-09T13:54:42;28.50;22.60
7218;DHT22;3650;53.580;10.094;2023-07-09T13:57:19;28.50;23.60
7218;DHT22;3650;53.580;10.094;2023-07-09T13:59:48;28.60;23.00
7218;DHT22;3650;53.580;10.094;2023-07-09T14:02:22;28.70;22.10
7218;DHT22;3650;53.580;10.094;2023-07-09T14:04:50;28.70;21.00
7218;DHT22;3650;53.580;10.094;2023-07-09T14:07:25;28.80;21.70
7218;DHT22;3650;53.580;10.094;2023-07-09T14:10:00;28.80;23.20
7218;DHT22;3650;53.580;10.094;2023-07-09T14:12:27;28.90;24.60
7218;DHT22;3650;53.580;10.094;2023-07-09T14:14:58;29.00;25.40
7218;DHT22;3650;53.580;10.094;2023-07-09T14:17:26;29.10;23.40
7218;DHT22;3650;53.580;10.094;2023-07-09T14:19:52;29.10;22.00
7218;DHT22;3650;53.580;10.094;2023-07-09T14:22:23;29.10;21.70
7218;DHT22;3650;53.580;10.094;2023-07-09T14:24:52;29.10;20.10
7218;DHT22;3650;53.580;10.094;2023-07-09T14:27:19;29.20;21.30
7218;DHT22;3650;53.580;10.094;2023-07-09T14:29:46;29.20;22.10
7218;DHT22;3650;53.580;10.094;2023-07-09T14:32:41;29.30;23.20
7218;DHT22;3650;53.580;10.094;2023-07-09T14:35:13;29.30;22.40
7218;DHT22;3650;53.580;10.094;2023-07-09T14:37:40;29.30;22.20
7218;DHT22;3650;53.580;10.094;2023-07-09T14:40:08;29.50;21.70
7218;DHT22;3650;53.580;10.094;2023-07-09T14:42:36;29.50;22.30
7218;DHT22;3650;53.580;10.094;2023-07-09T14:45:04;29.60;23.30
7218;DHT22;3650;53.580;10.094;2023-07-09T14:47:31;29.70;20.50
7218;DHT22;3650;53.580;10.094;2023-07-09T14:50:00;29.80;19.90
7218;DHT22;3650;53.580;10.094;2023-07-09T14:52:30;29.90;20.50
7218;DHT22;3650;53.580;10.094;2023-07-09T14:54:58;30.00;19.40
7218;DHT22;3650;53.580;10.094;2023-07-09T14:57:26;30.10;19.70
7218;DHT22;3650;53.580;10.094;2023-07-09T14:59:56;30.20;19.40
7218;DHT22;3650;53.580;10.094;2023-07-09T15:02:32;30.30;18.90
7218;DHT22;3650;53.580;10.094;2023-07-09T15:05:03;30.40;18.20
7218;DHT22;3650;53.580;10.094;2023-07-09T15:07:31;30.40;17.60
7218;DHT22;3650;53.580;10.094;2023-07-09T15:09:58;30.30;18.50
7218;DHT22;3650;53.580;10.094;2023-07-09T15:12:28;30.30;18.50
7218;DHT22;3650;53.580;10.094;2023-07-09T15:15:03;30.20;18.20
7218;DHT22;3650;53.580;10.094;2023-07-09T15:17:33;30.20;18.80
7218;DHT22;3650;53.580;10.094;2023-07-09T15:20:01;30.10;18.90
7218;DHT22;3650;53.580;10.094;2023-07-09T15:22:32;30.10;19.20
7218;DHT22;3650;53.580;10.094;2023-07-09T15:24:59;30.00;19.20
7218;DHT22;3650;53.580;10.094;2023-07-09T15:27:26;30.00;19.40
7218;DHT22;3650;53.580;10.094;2023-07-09T15:29:54;29.90;19.30
7218;DHT22;3650;53.580;10.094;2023-07-09T15:32:22;29.80;18.10
7218;DHT22;3650;53.580;10.094;2023-07-09T15:34:48;29.80;18.00
7218;DHT22;3650;53.580;10.094;2023-07-09T15:37:17;29.70;18.10
7218;DHT22;3650;53.580;10.094;2023-07-09T15:39:44;29.60;17.20
7218;DHT22;3650;53.580;10.094;2023-07-09T15:42:12;29.60;17.20
7218;DHT22;3650;53.580;10.094;2023-07-09T15:44:40;29.60;17.40
7218;DHT22;3650;53.580;10.094;2023-07-09T15:47:16;29.60;17.70
7218;DHT22;3650;53.580;10.094;2023-07-09T15:49:44;29.60;17.70
7218;DHT22;3650;53.580;10.094;2023-07-09T15:52:11;29.60;17.90
7218;DHT22;3650;53.580;10.094;2023-07-09T15:54:41;29.60;17.80
7218;DHT22;3650;53.580;10.094;2023-07-09T15:57:09;29.60;17.40
7218;DHT22;3650;53.580;10.094;2023-07-09T15:59:40;29.60;17.60